Time;durP1;ratioP1;P1;durP2;ratioP2;P2;SDS_P1;SDS_P2;PMS_P1;PMS_P2;Temp;Humidity;BMP_temperature;BMP_pressure;BME280_temperature;BME280_humidity;BME280_pressure;Samples;Min_cycle;Max_cycle;Signal;HPM_P1;HPM_P2
2023/06/11 00:01:42;;;;;;;5.47;4.07;;;20.80;99.90;;;;;;4994462;28;20204;-55
2023/06/11 00:04:12;;;;;;;5.13;4.60;;;20.80;99.90;;;;;;4994376;28;20580;-54
2023/06/11 00:06:39;;;;;;;4.38;4.03;;;20.80;99.90;;;;;;4993918;28;20219;-54
2023/06/11 00:09:05;;;;;;;5.55;4.57;;;20.70;99.90;;;;;;4993937;28;20227;-54
2023/06/11 00:11:33;;;;;;;4.55;4.15;;;20.60;99.90;;;;;;4994103;28;20239;-56
2023/06/11 00:14:00;;;;;;;5.88;4.28;;;20.60;99.90;;;;;;4994197;28;20236;-54
2023/06/11 00:16:32;;;;;;;4.45;4.05;;;20.50;99.90;;;;;;4993707;28;20258;-54
2023/06/11 00:18:59;;;;;;;5.50;4.25;;;20.50;99.90;;;;;;4993801;28;20614;-54
2023/06/11 00:21:28;;;;;;;4.57;4.18;;;20.40;99.90;;;;;;4993972;28;20218;-54
2023/06/11 00:23:55;;;;;;;5.47;5.03;;;20.50;99.90;;;;;;4993659;28;20599;-53
2023/06/11 00:26:23;;;;;;;4.93;4.43;;;20.50;99.90;;;;;;4993450;28;20266;-54
2023/06/11 00:28:49;;;;;;;6.35;4.30;;;20.50;99.90;;;;;;4993565;28;20659;-54
2023/06/11 00:31:16;;;;;;;5.03;4.53;;;20.50;99.90;;;;;;4993938;28;20214;-54
2023/06/11 00:33:44;;;;;;;4.60;4.20;;;20.50;99.90;;;;;;4993420;28;20237;-57
2023/06/11 00:36:11;;;;;;;5.18;4.70;;;20.40;99.90;;;;;;4993680;28;20618;-57
2023/06/11 00:38:37;;;;;;;4.60;4.20;;;20.40;99.90;;;;;;4993455;28;20231;-55
2023/06/11 00:41:04;;;;;;;5.05;4.55;;;20.40;99.90;;;;;;4993705;28;20211;-55
2023/06/11 00:43:31;;;;;;;4.78;4.10;;;20.40;99.90;;;;;;4993613;28;20621;-55
2023/06/11 00:46:02;;;;;;;5.05;4.55;;;20.30;99.90;;;;;;4993016;28;20246;-55
2023/06/11 00:48:29;;;;;;;4.90;4.40;;;20.20;99.90;;;;;;4992917;28;20672;-56
2023/06/11 00:50:57;;;;;;;5.55;4.63;;;20.10;99.90;;;;;;4993194;28;20203;-56
2023/06/11 00:53:24;;;;;;;5.18;4.40;;;19.90;99.90;;;;;;4993042;28;20234;-55
2023/06/11 00:55:51;;;;;;;4.93;4.53;;;19.80;99.90;;;;;;4993404;28;20204;-55
2023/06/11 00:58:18;;;;;;;5.28;4.57;;;19.70;99.90;;;;;;4993220;28;20246;-58
2023/06/11 01:00:49;;;;;;;4.82;4.30;;;19.70;99.90;;;;;;4993012;28;20212;-56
2023/06/11 01:03:21;;;;;;;5.20;4.30;;;19.60;99.90;;;;;;4993086;28;20665;-55
2023/06/11 01:05:50;;;;;;;5.07;4.68;;;19.50;99.90;;;;;;4992711;28;20219;-58
2023/06/11 01:08:19;;;;;;;4.47;4.00;;;19.50;99.90;;;;;;4992863;28;20250;-54
2023/06/11 01:10:49;;;;;;;5.03;4.53;;;19.50;99.90;;;;;;4993109;28;20249;-57
2023/06/11 01:13:16;;;;;;;4.93;4.45;;;19.40;99.90;;;;;;4992775;28;20823;-54
2023/06/11 01:15:42;;;;;;;5.25;4.40;;;19.40;99.90;;;;;;4992918;28;20207;-55
2023/06/11 01:18:13;;;;;;;5.38;4.63;;;19.30;99.90;;;;;;4993079;28;20252;-55
2023/06/11 01:20:45;;;;;;;5.03;4.53;;;19.30;99.90;;;;;;4992918;28;20214;-54
2023/06/11 01:23:31;;;;;;;4.80;4.40;;;19.30;99.90;;;;;;4992863;28;20215;-54
2023/06/11 01:26:21;;;;;;;5.28;4.78;;;19.20;99.90;;;;;;4992519;28;20243;-54
2023/06/11 01:28:54;;;;;;;4.60;4.20;;;19.20;99.90;;;;;;4992421;28;20523;-55
2023/06/11 01:31:22;;;;;;;4.35;3.95;;;19.10;99.90;;;;;;4992724;28;20211;-55
2023/06/11 01:33:51;;;;;;;4.57;4.03;;;19.10;99.90;;;;;;4992819;28;20232;-55
2023/06/11 01:36:18;;;;;;;5.00;4.53;;;19.10;99.90;;;;;;4992407;28;20562;-55
2023/06/11 01:38:44;;;;;;;4.93;4.43;;;19.00;99.90;;;;;;4992701;28;20232;-56
2023/06/11 01:41:12;;;;;;;5.47;3.90;;;19.10;99.90;;;;;;4992444;28;20258;-55
2023/06/11 01:43:39;;;;;;;4.55;4.15;;;19.10;99.90;;;;;;4992251;28;20696;-55
2023/06/11 01:46:08;;;;;;;4.72;4.13;;;19.10;99.90;;;;;;4992313;28;20207;-56
2023/06/11 01:48:35;;;;;;;5.95;4.18;;;19.00;99.90;;;;;;4992568;28;20227;-55
2023/06/11 01:51:02;;;;;;;4.60;4.18;;;18.90;99.90;;;;;;4992368;28;20706;-54
2023/06/11 01:53:30;;;;;;;4.88;4.45;;;19.00;99.90;;;;;;4992522;28;20223;-56
2023/06/11 01:55:57;;;;;;;5.22;4.72;;;19.00;99.90;;;;;;4992135;28;20741;-54
2023/06/11 01:58:23;;;;;;;5.25;4.75;;;18.90;99.90;;;;;;4992324;28;20234;-55
2023/06/11 02:00:50;;;;;;;5.10;4.60;;;18.90;99.90;;;;;;4994528;28;20211;-55
2023/06/11 02:03:18;;;;;;;6.53;4.22;;;18.80;99.90;;;;;;4996458;28;20200;-55
2023/06/11 02:05:45;;;;;;;4.30;3.83;;;18.80;99.90;;;;;;4996264;28;20203;-54
2023/06/11 02:08:12;;;;;;;4.85;4.45;;;18.80;99.90;;;;;;4996178;28;20231;-54
2023/06/11 02:10:39;;;;;;;4.70;4.30;;;18.90;99.90;;;;;;4996398;28;20571;-55
2023/06/11 02:13:05;;;;;;;4.75;4.35;;;18.90;99.90;;;;;;4996391;28;20223;-56
2023/06/11 02:15:32;;;;;;;4.70;4.20;;;18.90;99.90;;;;;;4996308;28;20203;-55
2023/06/11 02:17:59;;;;;;;4.60;4.20;;;18.90;99.90;;;;;;4995831;28;20239;-54
2023/06/11 02:20:27;;;;;;;4.53;4.10;;;18.90;99.90;;;;;;4996021;28;20204;-55
2023/06/11 02:22:54;;;;;;;4.50;4.10;;;18.80;99.90;;;;;;4995902;28;20234;-56
2023/06/11 02:25:21;;;;;;;4.68;4.28;;;18.80;99.90;;;;;;4996171;28;20669;-55
2023/06/11 02:27:48;;;;;;;4.50;4.10;;;18.80;99.90;;;;;;4995909;28;20235;-56
2023/06/11 02:30:15;;;;;;;6.38;3.88;;;18.80;99.90;;;;;;4995992;28;20297;-55
2023/06/11 02:32:43;;;;;;;5.55;3.67;;;18.80;99.90;;;;;;4996012;28;20207;-55
2023/06/11 02:35:10;;;;;;;4.72;4.07;;;18.90;99.90;;;;;;4995903;28;20239;-56
2023/06/11 02:37:38;;;;;;;5.15;4.30;;;18.90;99.90;;;;;;4995428;28;20235;-55
2023/06/11 02:40:06;;;;;;;4.72;4.15;;;18.90;99.90;;;;;;4995860;28;20285;-55
2023/06/11 02:42:33;;;;;;;6.15;4.22;;;18.90;99.90;;;;;;4995924;28;20242;-55
2023/06/11 02:44:59;;;;;;;4.50;4.10;;;18.90;99.90;;;;;;4995594;28;20211;-55
2023/06/11 02:47:26;;;;;;;5.90;3.92;;;18.90;99.90;;;;;;4995145;28;20245;-57
2023/06/11 02:49:53;;;;;;;6.45;4.38;;;18.90;99.90;;;;;;4995389;28;20230;-55
2023/06/11 02:52:19;;;;;;;4.55;4.10;;;18.90;99.90;;;;;;4995642;28;20212;-55
2023/06/11 02:54:47;;;;;;;4.32;3.78;;;18.90;99.90;;;;;;4995562;28;20289;-57
2023/06/11 02:57:15;;;;;;;5.82;4.40;;;18.90;99.90;;;;;;4995213;28;20215;-57
2023/06/11 02:59:41;;;;;;;4.55;4.10;;;18.80;99.90;;;;;;4995383;28;20258;-55
2023/06/11 03:02:08;;;;;;;4.63;4.22;;;18.80;99.90;;;;;;4995083;28;20693;-55
2023/06/11 03:04:36;;;;;;;4.60;4.20;;;18.80;99.90;;;;;;4995112;28;20208;-56
2023/06/11 03:07:02;;;;;;;4.75;4.15;;;18.80;99.90;;;;;;4994914;28;20591;-55
2023/06/11 03:09:29;;;;;;;4.93;4.13;;;18.80;99.90;;;;;;4995152;28;20708;-55
2023/06/11 03:11:57;;;;;;;4.10;3.70;;;18.80;99.90;;;;;;4994455;28;20240;-55
2023/06/11 03:14:26;;;;;;;4.70;4.18;;;18.80;99.90;;;;;;4994927;28;20232;-55
2023/06/11 03:16:52;;;;;;;5.10;4.32;;;18.80;99.90;;;;;;4994803;28;20211;-55
2023/06/11 03:19:19;;;;;;;4.30;3.85;;;18.80;99.90;;;;;;4994720;28;20239;-55
2023/06/11 03:21:46;;;;;;;4.70;4.30;;;18.80;99.90;;;;;;4995048;28;20295;-55
2023/06/11 03:24:13;;;;;;;4.93;4.43;;;18.80;99.90;;;;;;4994950;28;20561;-56
2023/06/11 03:26:39;;;;;;;4.78;4.28;;;18.80;99.90;;;;;;4994542;28;20579;-55
2023/06/11 03:29:07;;;;;;;5.07;4.47;;;18.80;99.90;;;;;;4995097;28;20231;-55
2023/06/11 03:31:34;;;;;;;4.65;4.18;;;18.80;99.90;;;;;;4994617;28;20204;-56
2023/06/11 03:34:01;;;;;;;4.55;4.13;;;18.80;99.90;;;;;;4994833;28;20603;-54
2023/06/11 03:36:28;;;;;;;5.72;4.70;;;18.80;99.90;;;;;;4994523;28;20309;-55
2023/06/11 03:38:55;;;;;;;5.55;5.05;;;18.80;99.90;;;;;;4994698;28;20721;-55
2023/06/11 03:41:22;;;;;;;5.05;4.55;;;18.80;99.90;;;;;;4994775;28;20220;-55
2023/06/11 03:43:48;;;;;;;5.32;4.75;;;18.90;99.90;;;;;;4994464;28;20603;-54
2023/06/11 03:46:17;;;;;;;5.68;4.30;;;18.90;99.90;;;;;;4994499;28;20212;-54
2023/06/11 03:48:43;;;;;;;5.57;4.88;;;18.90;99.90;;;;;;4994621;28;20328;-55
2023/06/11 03:51:10;;;;;;;5.20;4.70;;;18.90;99.90;;;;;;4994810;28;20214;-56
2023/06/11 03:53:37;;;;;;;5.88;4.72;;;18.90;99.90;;;;;;4994250;28;20228;-55
2023/06/11 03:56:04;;;;;;;5.55;4.97;;;19.00;99.90;;;;;;4994125;28;20203;-56
2023/06/11 03:58:30;;;;;;;5.13;4.55;;;19.00;99.90;;;;;;4994246;28;20278;-54
2023/06/11 04:00:57;;;;;;;5.82;4.70;;;19.00;99.90;;;;;;4994234;28;20204;-54
2023/06/11 04:03:25;;;;;;;4.68;4.28;;;19.00;99.90;;;;;;4994305;28;20247;-56
2023/06/11 04:05:52;;;;;;;4.85;4.32;;;19.10;99.90;;;;;;4993873;28;20689;-55
2023/06/11 04:08:19;;;;;;;4.50;4.07;;;19.20;99.90;;;;;;4994206;28;20311;-55
2023/06/11 04:10:46;;;;;;;4.60;4.20;;;19.20;99.90;;;;;;4994348;28;20294;-54
2023/06/11 04:13:12;;;;;;;4.95;4.47;;;19.30;99.90;;;;;;4994035;28;20207;-56
2023/06/11 04:15:39;;;;;;;5.10;4.38;;;19.30;99.90;;;;;;4993811;28;20231;-55
2023/06/11 04:18:06;;;;;;;4.65;3.80;;;19.40;99.90;;;;;;4993614;28;20239;-54
2023/06/11 04:20:34;;;;;;;4.80;4.40;;;19.50;99.90;;;;;;4994209;28;20226;-54
2023/06/11 04:23:01;;;;;;;4.68;4.28;;;19.50;99.90;;;;;;4993676;28;20211;-54
2023/06/11 04:25:31;;;;;;;4.78;4.38;;;19.60;99.90;;;;;;4993173;28;20278;-54
2023/06/11 04:27:58;;;;;;;5.50;5.00;;;19.60;99.90;;;;;;4993410;28;20720;-54
2023/06/11 04:30:24;;;;;;;5.28;4.75;;;19.80;99.90;;;;;;4993705;28;20211;-54
2023/06/11 04:32:54;;;;;;;4.70;4.30;;;19.80;99.90;;;;;;4993540;28;20602;-55
2023/06/11 04:35:23;;;;;;;6.60;5.10;;;19.90;99.90;;;;;;4993700;28;20330;-55
2023/06/11 04:37:51;;;;;;;6.80;5.32;;;20.00;99.90;;;;;;4993567;28;20266;-54
2023/06/11 04:40:20;;;;;;;6.90;4.38;;;20.10;99.90;;;;;;4993553;28;20214;-55
2023/06/11 04:42:47;;;;;;;5.97;4.47;;;20.20;99.90;;;;;;4993886;28;20215;-54
2023/06/11 04:45:18;;;;;;;4.50;4.10;;;20.10;99.90;;;;;;4993531;28;20232;-55
2023/06/11 04:47:45;;;;;;;5.15;3.60;;;20.30;99.90;;;;;;4993231;28;20235;-56
2023/06/11 04:50:12;;;;;;;6.75;4.32;;;21.00;99.90;;;;;;4993480;28;20211;-54
2023/06/11 04:52:42;;;;;;;3.63;3.33;;;22.40;99.90;;;;;;4993332;28;20262;-55
2023/06/11 04:55:12;;;;;;;3.80;3.50;;;24.20;99.90;;;;;;4993406;28;20263;-56
2023/06/11 04:57:39;;;;;;;3.47;3.17;;;26.10;99.90;;;;;;4993019;28;20231;-55
2023/06/11 05:00:08;;;;;;;4.22;3.75;;;27.70;99.90;;;;;;4993595;28;20208;-55
2023/06/11 05:02:37;;;;;;;3.28;2.97;;;29.20;97.80;;;;;;4993002;28;20576;-54
2023/06/11 05:05:05;;;;;;;4.53;3.30;;;30.20;94.30;;;;;;4992921;28;20214;-57
2023/06/11 05:07:32;;;;;;;3.55;3.25;;;31.20;90.70;;;;;;4992719;28;20244;-56
2023/06/11 05:09:59;;;;;;;3.35;3.05;;;32.00;86.30;;;;;;4993248;28;20211;-55
2023/06/11 05:12:27;;;;;;;3.92;3.53;;;32.60;81.70;;;;;;4993216;28;20219;-54
2023/06/11 05:14:53;;;;;;;4.35;3.20;;;33.10;78.70;;;;;;4992951;28;20227;-54
2023/06/11 05:17:20;;;;;;;3.30;2.97;;;33.70;76.00;;;;;;4992259;28;20207;-55
2023/06/11 05:19:47;;;;;;;4.30;3.05;;;34.20;73.40;;;;;;4992928;28;20215;-54
2023/06/11 05:22:14;;;;;;;4.38;3.25;;;34.40;72.20;;;;;;4993085;28;20216;-54
2023/06/11 05:24:42;;;;;;;3.10;2.80;;;34.60;69.10;;;;;;4993056;28;20211;-54
2023/06/11 05:27:09;;;;;;;3.35;2.67;;;34.80;68.50;;;;;;4993013;28;20214;-54
2023/06/11 05:29:37;;;;;;;3.63;2.80;;;35.30;66.00;;;;;;4992884;28;20228;-54
2023/06/11 05:32:08;;;;;;;3.15;2.90;;;35.60;64.80;;;;;;4992757;28;20207;-55
2023/06/11 05:34:37;;;;;;;6.03;3.10;;;36.00;63.30;;;;;;4992464;28;20220;-54
2023/06/11 05:37:04;;;;;;;3.35;2.97;;;36.50;61.90;;;;;;4992461;28;20207;-55
2023/06/11 05:39:31;;;;;;;5.57;3.13;;;37.10;60.20;;;;;;4992682;28;20285;-56
2023/06/11 05:41:58;;;;;;;3.58;3.28;;;37.60;58.50;;;;;;4992851;28;20204;-54
2023/06/11 05:44:24;;;;;;;4.50;3.05;;;37.70;57.50;;;;;;4992670;28;20238;-55
2023/06/11 05:46:52;;;;;;;3.28;2.97;;;37.70;56.90;;;;;;4992811;28;20203;-55
2023/06/11 05:49:19;;;;;;;5.63;3.30;;;37.60;56.30;;;;;;4992484;28;20231;-55
2023/06/11 05:51:46;;;;;;;3.80;2.80;;;37.60;56.30;;;;;;4992748;28;20211;-53
2023/06/11 05:54:12;;;;;;;3.25;2.80;;;37.80;55.60;;;;;;4992641;28;20223;-56
2023/06/11 05:56:39;;;;;;;4.75;3.25;;;38.20;55.10;;;;;;4992675;28;20211;-54
2023/06/11 05:59:06;;;;;;;3.55;2.80;;;38.50;54.20;;;;;;4992627;28;20232;-53
2023/06/11 06:01:34;;;;;;;3.17;2.88;;;38.70;53.70;;;;;;4992394;28;20219;-55
2023/06/11 06:04:03;;;;;;;4.40;3.13;;;39.00;52.80;;;;;;4992878;28;20230;-55
2023/06/11 06:06:30;;;;;;;2.97;2.70;;;39.20;53.20;;;;;;4992496;28;20234;-55
2023/06/11 06:08:56;;;;;;;3.42;2.72;;;39.10;51.70;;;;;;4992879;28;20259;-54
2023/06/11 06:11:23;;;;;;;3.50;3.20;;;38.80;52.20;;;;;;4992542;28;20687;-57
2023/06/11 06:13:50;;;;;;;3.53;3.00;;;38.40;52.30;;;;;;4992443;28;20622;-54
2023/06/11 06:16:16;;;;;;;6.35;4.97;;;38.30;52.50;;;;;;4991874;28;20231;-54
2023/06/11 06:18:44;;;;;;;3.17;2.72;;;38.40;52.30;;;;;;4992244;28;20268;-53
2023/06/11 06:21:12;;;;;;;4.15;3.00;;;38.90;51.30;;;;;;4992289;28;20653;-53
2023/06/11 06:23:38;;;;;;;3.00;2.70;;;39.40;50.80;;;;;;4992681;28;20212;-54
2023/06/11 06:26:05;;;;;;;4.47;2.75;;;39.60;50.10;;;;;;4991935;28;20215;-55
2023/06/11 06:28:34;;;;;;;3.40;3.10;;;39.60;49.70;;;;;;4992255;28;20230;-54
2023/06/11 06:31:02;;;;;;;3.70;3.00;;;39.20;49.90;;;;;;4991975;28;20212;-54
2023/06/11 06:33:30;;;;;;;3.70;2.80;;;38.20;51.10;;;;;;4992204;28;20274;-53
2023/06/11 06:35:57;;;;;;;4.55;3.22;;;37.40;52.40;;;;;;4991637;28;20701;-54
2023/06/11 06:38:25;;;;;;;4.35;2.97;;;37.50;52.00;;;;;;4992139;28;20235;-54
2023/06/11 06:40:51;;;;;;;3.72;2.90;;;37.90;51.40;;;;;;4992129;28;20219;-54
2023/06/11 06:43:18;;;;;;;3.33;3.00;;;38.60;50.50;;;;;;4991949;28;20207;-56
2023/06/11 06:45:45;;;;;;;3.30;2.90;;;39.40;49.10;;;;;;4992294;28;20211;-54
2023/06/11 06:48:12;;;;;;;4.75;2.97;;;39.20;48.60;;;;;;4994390;28;20341;-54
2023/06/11 06:50:38;;;;;;;2.75;2.55;;;39.20;48.90;;;;;;4995663;28;20294;-55
2023/06/11 06:53:05;;;;;;;4.75;2.95;;;39.30;48.70;;;;;;4995973;28;20212;-54
2023/06/11 06:55:33;;;;;;;7.20;4.35;;;39.40;48.50;;;;;;4995258;28;20219;-54
2023/06/11 06:58:00;;;;;;;5.60;3.20;;;39.30;48.40;;;;;;4995129;28;20231;-55
2023/06/11 07:00:27;;;;;;;4.90;3.20;;;39.40;48.30;;;;;;4995533;28;20274;-54
2023/06/11 07:02:54;;;;;;;3.17;2.78;;;39.20;48.30;;;;;;4995597;28;20231;-54
2023/06/11 07:05:21;;;;;;;3.95;2.90;;;39.00;48.60;;;;;;4995528;28;20231;-55
2023/06/11 07:07:47;;;;;;;3.92;3.60;;;39.00;48.50;;;;;;4995040;28;20657;-54
2023/06/11 07:10:14;;;;;;;4.68;3.00;;;38.80;48.60;;;;;;4995497;28;20215;-55
2023/06/11 07:12:42;;;;;;;4.80;3.20;;;39.30;48.00;;;;;;4995133;28;20207;-54
2023/06/11 07:15:10;;;;;;;4.55;2.83;;;39.70;47.30;;;;;;4995282;28;20244;-54
2023/06/11 07:20:09;;;;;;;4.47;2.90;;;39.70;46.90;;;;;;5061258;28;20683;-58
2023/06/11 07:22:36;;;;;;;3.88;3.50;;;39.90;46.40;;;;;;5073049;28;20665;-60
2023/06/11 07:25:03;;;;;;;3.72;3.08;;;40.30;46.20;;;;;;5074498;28;20197;-61
2023/06/11 07:27:30;;;;;;;4.15;2.97;;;39.90;46.20;;;;;;5074460;28;20209;-60
2023/06/11 07:29:58;;;;;;;4.72;3.05;;;39.50;46.20;;;;;;5074269;28;20728;-60
2023/06/11 07:32:25;;;;;;;6.50;3.20;;;39.10;47.40;;;;;;5074483;28;20291;-60
2023/06/11 07:34:51;;;;;;;3.00;2.70;;;39.10;46.90;;;;;;5074225;28;20229;-60
2023/06/11 07:37:18;;;;;;;4.13;2.72;;;39.00;47.50;;;;;;5074041;28;20589;-60
2023/06/11 07:39:45;;;;;;;3.08;2.80;;;39.10;47.30;;;;;;5074016;28;20232;-60
2023/06/11 07:42:11;;;;;;;3.15;2.85;;;38.90;46.60;;;;;;5074366;28;20208;-60
2023/06/11 07:44:38;;;;;;;2.92;2.67;;;39.00;46.40;;;;;;5073960;28;20201;-60
2023/06/11 07:47:07;;;;;;;5.05;2.92;;;38.80;46.50;;;;;;5074192;28;20204;-60
2023/06/11 07:49:33;;;;;;;3.40;3.10;;;37.90;47.70;;;;;;5074022;28;20233;-57
2023/06/11 07:52:00;;;;;;;3.38;2.80;;;38.00;47.70;;;;;;5074045;28;20260;-57
2023/06/11 07:54:27;;;;;;;3.92;2.83;;;38.40;46.40;;;;;;5073970;28;20205;-58
2023/06/11 07:56:55;;;;;;;3.08;2.72;;;38.80;45.50;;;;;;5073750;28;20670;-57
2023/06/11 07:59:21;;;;;;;3.45;2.72;;;38.80;45.90;;;;;;5073415;28;20232;-57
2023/06/11 08:01:48;;;;;;;4.00;3.20;;;38.80;45.50;;;;;;5073895;28;20346;-57
2023/06/11 08:04:16;;;;;;;3.00;2.75;;;38.30;46.20;;;;;;5073864;28;20215;-56
2023/06/11 08:06:44;;;;;;;6.32;2.92;;;38.40;46.70;;;;;;5073431;28;20244;-57
2023/06/11 08:09:11;;;;;;;3.92;3.20;;;38.80;46.10;;;;;;5073592;28;20316;-58
2023/06/11 08:11:41;;;;;;;3.10;2.78;;;39.20;45.10;;;;;;5073715;28;20209;-57
2023/06/11 08:14:08;;;;;;;3.88;2.80;;;39.20;44.50;;;;;;5073529;28;20575;-61
2023/06/11 08:16:34;;;;;;;3.03;2.72;;;39.10;44.90;;;;;;5073300;28;20225;-61
2023/06/11 08:19:01;;;;;;;3.22;2.92;;;38.70;45.30;;;;;;5073351;28;20260;-61
2023/06/11 08:21:29;;;;;;;4.68;2.78;;;38.70;45.40;;;;;;5073520;28;20235;-61
2023/06/11 08:23:57;;;;;;;3.63;3.03;;;38.80;45.00;;;;;;5073593;28;20291;-59
2023/06/11 08:26:25;;;;;;;4.15;2.60;;;39.10;43.30;;;;;;5073205;28;20232;-61
2023/06/11 08:28:52;;;;;;;4.15;2.58;;;39.30;44.40;;;;;;5073239;28;20282;-60
2023/06/11 08:31:19;;;;;;;2.80;2.60;;;39.40;43.70;;;;;;5073200;28;20216;-60
2023/06/11 08:33:46;;;;;;;3.10;2.60;;;39.60;42.90;;;;;;5072804;28;20727;-61
2023/06/11 08:36:12;;;;;;;4.85;2.75;;;39.40;42.30;;;;;;5072802;28;20716;-60
2023/06/11 08:38:41;;;;;;;4.03;2.97;;;39.20;41.80;;;;;;5073055;28;20229;-61
2023/06/11 08:41:07;;;;;;;3.42;3.13;;;38.70;41.70;;;;;;5073579;28;20588;-61
2023/06/11 08:43:34;;;;;;;3.10;2.80;;;38.00;42.60;;;;;;5072783;28;20216;-61
2023/06/11 08:46:01;;;;;;;5.10;3.28;;;37.30;43.70;;;;;;5072727;28;20212;-60
2023/06/11 08:48:30;;;;;;;6.63;3.00;;;36.60;43.80;;;;;;5072821;28;20720;-60
2023/06/11 08:51:00;;;;;;;3.72;3.15;;;36.00;44.10;;;;;;5072845;28;20242;-59
2023/06/11 08:53:28;;;;;;;4.35;2.97;;;34.60;45.60;;;;;;5072715;28;20291;-60
2023/06/11 08:55:56;;;;;;;4.75;3.28;;;33.10;46.90;;;;;;5072289;28;20315;-60
2023/06/11 08:58:25;;;;;;;3.22;2.92;;;31.90;48.90;;;;;;5072867;28;20259;-61
2023/06/11 09:00:52;;;;;;;5.35;3.40;;;31.00;50.50;;;;;;5072861;28;20208;-59
2023/06/11 09:03:18;;;;;;;6.30;3.53;;;30.10;51.20;;;;;;5072857;28;20738;-60
2023/06/11 09:05:46;;;;;;;4.88;3.42;;;29.30;52.90;;;;;;5072670;28;20681;-59
2023/06/11 09:08:13;;;;;;;6.95;3.65;;;28.40;54.10;;;;;;5072864;28;20233;-60
2023/06/11 09:10:49;;;;;;;6.55;3.28;;;28.00;54.40;;;;;;5072516;28;20205;-59
2023/06/11 09:13:18;;;;;;;4.53;3.33;;;27.80;54.70;;;;;;5072702;28;20244;-60
2023/06/11 09:15:49;;;;;;;4.35;3.10;;;27.50;53.50;;;;;;5073212;28;20232;-60
2023/06/11 09:18:22;;;;;;;5.88;3.58;;;27.40;54.60;;;;;;5072617;28;20600;-59
2023/06/11 09:20:50;;;;;;;4.15;3.60;;;27.40;54.40;;;;;;5073269;28;20205;-60
2023/06/11 09:23:25;;;;;;;5.93;3.80;;;27.30;55.40;;;;;;5074025;28;20196;-60
2023/06/11 09:25:52;;;;;;;5.97;3.47;;;27.30;55.90;;;;;;5072996;28;20291;-59
2023/06/11 09:28:20;;;;;;;5.15;3.38;;;27.30;54.60;;;;;;5073118;28;20236;-59
2023/06/11 09:30:54;;;;;;;6.90;3.30;;;27.30;54.10;;;;;;5073298;28;20205;-60
2023/06/11 09:33:20;;;;;;;5.40;3.47;;;27.30;53.70;;;;;;5069346;28;20445;-60
2023/06/11 09:35:48;;;;;;;8.10;3.70;;;27.20;52.90;;;;;;5071738;28;20228;-61
2023/06/11 09:38:16;;;;;;;5.13;3.20;;;27.10;53.20;;;;;;5074035;28;20603;-63
2023/06/11 09:40:46;;;;;;;4.95;3.20;;;27.20;53.30;;;;;;5073872;28;20296;-65
2023/06/11 09:43:12;;;;;;;4.55;3.03;;;27.40;51.90;;;;;;5074843;28;20236;-65
2023/06/11 09:45:42;;;;;;;3.65;2.88;;;27.40;50.30;;;;;;5074691;28;20209;-64
2023/06/11 09:48:11;;;;;;;4.18;2.95;;;27.40;50.60;;;;;;5075406;28;20733;-63
2023/06/11 09:50:39;;;;;;;4.90;3.08;;;27.40;50.40;;;;;;5075296;28;20598;-63
2023/06/11 09:53:07;;;;;;;6.35;3.28;;;27.40;48.80;;;;;;5074820;28;20228;-63
2023/06/11 09:55:35;;;;;;;3.95;2.90;;;27.30;50.50;;;;;;5075973;28;20307;-63
2023/06/11 09:58:02;;;;;;;3.47;3.08;;;27.30;51.10;;;;;;5074685;28;20299;-63
2023/06/11 10:00:30;;;;;;;3.65;3.00;;;27.20;50.10;;;;;;5075868;28;20207;-63
2023/06/11 10:02:58;;;;;;;3.33;2.88;;;27.20;50.50;;;;;;5077359;28;20216;-62
2023/06/11 10:05:25;;;;;;;4.50;3.17;;;27.30;50.70;;;;;;5076766;28;20212;-62
2023/06/11 10:07:59;;;;;;;3.53;3.00;;;27.50;51.10;;;;;;5076416;28;20212;-63
2023/06/11 10:10:28;;;;;;;6.68;3.00;;;27.40;50.80;;;;;;5076272;28;20216;-63
2023/06/11 10:12:55;;;;;;;3.33;3.03;;;27.50;51.60;;;;;;5076902;28;20813;-64
2023/06/11 10:15:23;;;;;;;3.72;2.97;;;27.60;51.20;;;;;;5075894;28;20304;-64
2023/06/11 10:17:51;;;;;;;5.38;3.28;;;27.60;50.70;;;;;;5074377;28;20219;-61
2023/06/11 10:20:27;;;;;;;5.10;3.22;;;27.40;51.70;;;;;;5074476;28;20228;-62
2023/06/11 10:23:05;;;;;;;4.82;3.05;;;27.50;51.90;;;;;;5076955;28;20200;-61
2023/06/11 10:25:34;;;;;;;4.80;3.60;;;27.50;52.50;;;;;;5077242;28;20317;-63
2023/06/11 10:28:01;;;;;;;8.00;3.13;;;27.60;53.60;;;;;;5076305;28;20233;-61
2023/06/11 10:30:28;;;;;;;4.45;3.15;;;27.80;53.70;;;;;;5078744;28;20201;-63
2023/06/11 10:32:56;;;;;;;4.15;3.60;;;27.90;52.70;;;;;;5079378;28;20724;-65
2023/06/11 10:35:28;;;;;;;5.10;3.20;;;27.90;51.80;;;;;;5079623;28;20249;-65
2023/06/11 10:38:04;;;;;;;6.22;3.33;;;27.90;52.10;;;;;;5078688;28;20236;-65
2023/06/11 10:40:34;;;;;;;5.00;3.08;;;27.90;52.00;;;;;;5078653;28;20258;-64
2023/06/11 10:43:04;;;;;;;5.45;3.40;;;27.90;52.20;;;;;;5077484;28;20213;-64
2023/06/11 10:45:35;;;;;;;5.85;3.28;;;28.00;51.20;;;;;;5077675;28;20208;-62
2023/06/11 10:48:02;;;;;;;5.28;3.30;;;28.00;52.50;;;;;;5079322;28;20224;-61
2023/06/11 10:50:31;;;;;;;4.05;3.30;;;28.10;53.40;;;;;;5080932;28;20229;-62
2023/06/11 10:53:01;;;;;;;3.30;3.00;;;28.10;52.80;;;;;;5077487;28;20209;-63
2023/06/11 10:55:29;;;;;;;5.78;3.45;;;28.20;52.90;;;;;;5078156;28;20625;-65
2023/06/11 10:57:56;;;;;;;3.88;3.47;;;28.20;52.70;;;;;;5077160;28;20624;-65
2023/06/11 11:00:28;;;;;;;3.88;3.15;;;28.30;53.20;;;;;;5079575;28;20205;-64
2023/06/11 11:02:56;;;;;;;4.15;3.60;;;28.30;53.60;;;;;;5078465;28;20218;-65
2023/06/11 11:05:23;;;;;;;4.95;3.50;;;28.30;52.80;;;;;;5077985;28;20678;-63
2023/06/11 11:07:53;;;;;;;5.35;3.25;;;28.30;52.50;;;;;;5075672;28;20222;-62
2023/06/11 11:10:25;;;;;;;5.35;3.45;;;28.30;53.10;;;;;;5075910;28;20644;-62
2023/06/11 11:12:53;;;;;;;4.63;3.85;;;28.30;53.60;;;;;;5075416;28;20299;-63
2023/06/11 11:15:20;;;;;;;5.40;3.58;;;28.40;54.20;;;;;;5075297;28;20208;-63
2023/06/11 11:17:48;;;;;;;4.00;3.45;;;28.60;54.30;;;;;;5074269;28;20229;-61
2023/06/11 11:20:18;;;;;;;5.55;3.63;;;28.80;53.60;;;;;;5075162;28;20667;-62
2023/06/11 11:22:51;;;;;;;3.80;3.15;;;29.10;53.50;;;;;;5075078;28;20229;-63
2023/06/11 11:25:22;;;;;;;7.95;3.50;;;29.10;51.60;;;;;;5075044;28;20208;-62
2023/06/11 11:27:49;;;;;;;3.53;3.15;;;29.00;51.10;;;;;;5075099;28;20205;-62
2023/06/11 11:30:17;;;;;;;3.85;3.45;;;29.10;51.90;;;;;;5074372;28;20240;-59
2023/06/11 11:32:44;;;;;;;8.90;4.05;;;29.10;53.10;;;;;;5073676;28;20671;-61
2023/06/11 11:35:14;;;;;;;5.00;3.65;;;29.10;52.50;;;;;;5074446;28;20208;-62
2023/06/11 11:37:41;;;;;;;4.20;3.50;;;29.20;51.80;;;;;;5075097;28;20221;-61
2023/06/11 11:40:09;;;;;;;4.57;3.65;;;29.20;50.90;;;;;;5075914;28;20227;-63
2023/06/11 11:42:48;;;;;;;6.63;3.33;;;29.20;51.10;;;;;;5074500;28;20216;-62
2023/06/11 11:45:15;;;;;;;4.85;3.63;;;29.20;51.20;;;;;;5074777;28;20666;-63
2023/06/11 11:47:43;;;;;;;3.50;3.20;;;29.30;51.10;;;;;;5074064;28;20197;-63
2023/06/11 11:50:19;;;;;;;4.13;3.58;;;29.30;50.90;;;;;;5074538;28;20209;-62
2023/06/11 11:52:58;;;;;;;4.68;3.53;;;29.60;51.10;;;;;;5074687;28;20209;-62
2023/06/11 11:55:25;;;;;;;4.38;3.50;;;30.00;51.20;;;;;;5074676;28;20666;-62
2023/06/11 11:58:03;;;;;;;5.85;4.00;;;30.00;51.90;;;;;;5074066;28;20267;-61
2023/06/11 12:00:30;;;;;;;5.05;3.63;;;30.00;51.40;;;;;;5074468;28;20259;-62
2023/06/11 12:02:57;;;;;;;6.28;3.53;;;29.90;50.50;;;;;;5074407;28;20295;-62
2023/06/11 12:05:28;;;;;;;4.10;3.58;;;29.90;50.50;;;;;;5073974;28;20208;-61
2023/06/11 12:07:55;;;;;;;7.82;3.40;;;30.00;50.80;;;;;;5073810;28;20587;-63
2023/06/11 12:10:24;;;;;;;6.38;3.75;;;30.10;50.20;;;;;;5073792;28;20213;-62
2023/06/11 12:12:51;;;;;;;6.72;5.90;;;30.00;48.90;;;;;;5074362;28;20240;-62
2023/06/11 12:15:19;;;;;;;6.40;4.28;;;29.70;49.60;;;;;;5074226;28;20246;-61
2023/06/11 12:17:46;;;;;;;4.65;3.40;;;29.60;49.50;;;;;;5073381;28;20286;-61
2023/06/11 12:20:13;;;;;;;3.97;3.50;;;29.50;49.10;;;;;;5073627;28;20251;-59
2023/06/11 12:22:40;;;;;;;4.60;3.40;;;29.40;49.40;;;;;;5073592;28;20213;-61
2023/06/11 12:25:07;;;;;;;4.95;3.40;;;29.30;49.40;;;;;;5073806;28;20212;-58
2023/06/11 12:27:35;;;;;;;6.35;3.35;;;29.30;49.40;;;;;;5073107;28;20641;-59
2023/06/11 12:30:02;;;;;;;5.43;3.60;;;29.30;48.50;;;;;;5073011;28;20233;-58
2023/06/11 12:32:31;;;;;;;4.45;3.60;;;29.30;49.70;;;;;;5073247;28;20212;-61
2023/06/11 12:34:58;;;;;;;3.65;3.13;;;29.30;50.30;;;;;;5073432;28;20200;-64
2023/06/11 12:37:26;;;;;;;6.22;3.30;;;29.50;49.90;;;;;;5052639;28;20218;-63
2023/06/11 12:39:53;;;;;;;4.63;3.53;;;29.70;48.20;;;;;;5065544;28;20251;-60
2023/06/11 12:42:20;;;;;;;4.53;3.63;;;29.70;48.70;;;;;;5067292;28;20270;-60
2023/06/11 12:44:47;;;;;;;5.28;3.85;;;29.80;49.10;;;;;;5052307;28;20256;-61
2023/06/11 12:47:15;;;;;;;6.43;3.55;;;29.80;48.50;;;;;;5052710;28;20202;-60
2023/06/11 12:49:43;;;;;;;4.60;3.47;;;29.90;48.30;;;;;;5052984;28;20264;-59
2023/06/11 12:52:10;;;;;;;4.90;3.42;;;30.00;48.30;;;;;;5052670;28;20205;-62
2023/06/11 12:54:37;;;;;;;6.93;3.50;;;29.80;48.50;;;;;;5053186;28;20205;-63